createdAt,value
2023-04-12T00:00:24.745Z,4.00
2023-04-12T00:01:18.058Z,4.60
2023-04-12T00:01:51.463Z,4.00
2023-04-12T00:02:25.095Z,4.20
2023-04-12T00:02:59.817Z,2.80
2023-04-12T00:03:34.663Z,5.40
2023-04-12T00:04:10.779Z,3.40
2023-04-12T00:04:44.661Z,3.80
2023-04-12T00:05:18.390Z,3.40
2023-04-12T00:05:55.120Z,3.50
2023-04-12T00:06:32.803Z,4.10
2023-04-12T00:07:06.515Z,5.20
2023-04-12T00:07:39.925Z,2.90
2023-04-12T00:08:14.542Z,5.20
2023-04-12T00:08:47.897Z,6.10
2023-04-12T00:09:21.294Z,3.50
2023-04-12T00:09:56.785Z,5.00
2023-04-12T00:10:33.479Z,5.70
2023-04-12T00:11:08.131Z,3.90
2023-04-12T00:11:41.810Z,4.40
2023-04-12T00:12:15.271Z,5.00
2023-04-12T00:12:49.669Z,4.40
2023-04-12T00:13:23.429Z,3.50
2023-04-12T00:13:56.948Z,4.90
2023-04-12T00:14:30.466Z,4.70
2023-04-12T00:15:05.688Z,4.50
2023-04-12T00:15:40.687Z,3.90
2023-04-12T00:16:16.072Z,3.80
2023-04-12T00:16:49.734Z,3.40
2023-04-12T00:17:23.123Z,2.80
2023-04-12T00:17:56.568Z,4.90
2023-04-12T00:18:29.937Z,5.10
2023-04-12T00:19:03.961Z,4.70
2023-04-12T00:19:41.499Z,3.90
2023-04-12T00:20:16.714Z,6.80
2023-04-12T00:20:50.022Z,4.50
2023-04-12T00:21:24.019Z,4.20
2023-04-12T00:21:57.876Z,4.10
2023-04-12T00:22:31.273Z,4.40
2023-04-12T00:23:04.788Z,6.20
2023-04-12T00:23:38.275Z,3.70
2023-04-12T00:24:11.826Z,3.20
2023-04-12T00:24:45.103Z,5.40
2023-04-12T00:25:18.676Z,4.10
2023-04-12T00:25:52.130Z,5.70
2023-04-12T00:26:26.113Z,4.60
2023-04-12T00:27:02.234Z,5.50
2023-04-12T00:27:35.880Z,4.10
2023-04-12T00:28:09.343Z,4.10
2023-04-12T00:28:43.213Z,3.70
2023-04-12T00:29:18.656Z,3.90
2023-04-12T00:29:52.142Z,3.20
2023-04-12T00:30:25.952Z,4.70
2023-04-12T00:30:59.443Z,3.50
2023-04-12T00:31:33.815Z,5.50
2023-04-12T00:32:08.748Z,4.60
2023-04-12T00:32:42.142Z,4.40
2023-04-12T00:33:15.546Z,3.30
2023-04-12T00:33:48.906Z,5.70
2023-04-12T00:34:22.293Z,4.70
2023-04-12T00:34:55.998Z,4.10
2023-04-12T00:35:29.611Z,4.50
2023-04-12T00:36:03.349Z,4.60
2023-04-12T00:36:36.960Z,3.10
2023-04-12T00:37:10.387Z,6.10
2023-04-12T00:37:45.947Z,4.10
2023-04-12T00:38:19.367Z,4.40
2023-04-12T00:38:52.871Z,4.60
2023-04-12T00:39:26.804Z,3.90
2023-04-12T00:40:00.411Z,3.40
2023-04-12T00:40:33.769Z,4.40
2023-04-12T00:41:08.849Z,4.30
2023-04-12T00:41:42.286Z,5.00
2023-04-12T00:42:15.738Z,5.30
2023-04-12T00:42:49.042Z,3.50
2023-04-12T00:43:23.368Z,2.90
2023-04-12T00:43:57.229Z,3.80
2023-04-12T00:44:31.634Z,5.70
2023-04-12T00:45:06.930Z,3.80
2023-04-12T00:45:40.694Z,3.90
2023-04-12T00:46:13.947Z,3.90
2023-04-12T00:46:47.607Z,4.20
2023-04-12T00:47:21.208Z,3.70
2023-04-12T00:47:57.932Z,5.10
2023-04-12T00:48:31.917Z,7.10
2023-04-12T00:49:05.845Z,3.70
2023-04-12T00:49:39.255Z,3.80
2023-04-12T00:50:12.780Z,5.70
2023-04-12T00:50:46.838Z,4.20
2023-04-12T00:51:22.812Z,4.10
2023-04-12T00:52:00.196Z,4.70
2023-04-12T00:52:37.796Z,3.40
2023-04-12T00:53:14.803Z,6.30
2023-04-12T00:53:48.680Z,3.40
2023-04-12T00:54:22.420Z,3.80
2023-04-12T00:54:55.741Z,3.50
2023-04-12T00:55:29.181Z,4.40
2023-04-12T00:56:04.584Z,6.20
2023-04-12T00:56:40.573Z,3.70
2023-04-12T00:57:14.060Z,4.10
2023-04-12T00:57:47.632Z,4.60
2023-04-12T00:58:24.437Z,3.40
2023-04-12T00:58:58.412Z,4.00
2023-04-12T00:59:32.193Z,4.40
2023-04-12T01:00:13.083Z,3.40
2023-04-12T01:00:50.531Z,6.70
2023-04-12T01:01:24.409Z,4.90
2023-04-12T01:01:59.570Z,4.60
2023-04-12T01:02:35.118Z,5.50
2023-04-12T01:03:08.929Z,5.70
2023-04-12T01:03:43.437Z,4.30
2023-04-12T01:04:17.199Z,5.70
2023-04-12T01:04:51.603Z,3.40
2023-04-12T01:05:25.695Z,4.50
2023-04-12T01:06:14.661Z,3.40
2023-04-12T01:06:48.035Z,3.90
2023-04-12T01:07:39.124Z,5.50
2023-04-12T01:09:05.139Z,3.10
2023-04-12T01:09:44.033Z,4.20
2023-04-12T01:10:43.952Z,4.90
2023-04-12T01:11:32.069Z,4.10
2023-04-12T01:12:21.455Z,3.80
2023-04-12T01:13:13.622Z,3.30
2023-04-12T01:13:56.418Z,3.50
2023-04-12T01:14:42.276Z,2.60
2023-04-12T01:15:17.276Z,4.20
2023-04-12T01:15:57.571Z,3.60
2023-04-12T01:17:21.382Z,3.10
2023-04-12T01:18:03.125Z,4.20
2023-04-12T01:18:43.106Z,3.90
2023-04-12T01:20:13.740Z,3.30
2023-04-12T01:21:09.032Z,3.70
2023-04-12T01:22:02.847Z,3.20
2023-04-12T01:23:18.051Z,3.70
2023-04-12T01:24:14.283Z,3.00
2023-04-12T01:25:09.929Z,2.70
2023-04-12T01:25:49.051Z,4.00
2023-04-12T01:26:41.040Z,3.70
2023-04-12T01:27:48.200Z,3.20
2023-04-12T01:28:27.879Z,3.90
2023-04-12T01:29:10.427Z,4.30
2023-04-12T01:29:50.085Z,5.70
2023-04-12T01:30:28.362Z,6.10
2023-04-12T01:31:03.898Z,4.30
2023-04-12T01:31:41.598Z,4.40
2023-04-12T01:32:15.201Z,4.30
2023-04-12T01:32:53.670Z,4.00
2023-04-12T01:33:31.690Z,2.80
2023-04-12T01:34:06.413Z,3.60
2023-04-12T01:34:41.939Z,3.80
2023-04-12T01:35:17.023Z,3.50
2023-04-12T01:35:51.891Z,6.10
2023-04-12T01:36:28.457Z,4.60
2023-04-12T01:37:03.755Z,3.60
2023-04-12T01:37:37.876Z,4.30
2023-04-12T01:38:11.609Z,4.10
2023-04-12T01:38:45.895Z,3.80
2023-04-12T01:39:19.351Z,4.40
2023-04-12T01:39:52.823Z,3.90
2023-04-12T01:40:31.320Z,3.70
2023-04-12T01:41:05.929Z,4.40
2023-04-12T01:41:45.652Z,5.70
2023-04-12T01:42:20.795Z,4.90
2023-04-12T01:43:16.506Z,2.90
2023-04-12T01:43:49.967Z,4.60
2023-04-12T01:44:23.492Z,4.10
2023-04-12T01:44:59.147Z,4.90
2023-04-12T01:45:32.620Z,4.80
2023-04-12T01:46:06.398Z,4.10
2023-04-12T01:46:40.106Z,5.70
2023-04-12T01:47:13.829Z,3.80
2023-04-12T01:47:47.563Z,4.00
2023-04-12T01:48:21.181Z,3.50
2023-04-12T01:48:55.133Z,5.70
2023-04-12T01:51:38.646Z,4.90
2023-04-12T01:52:17.410Z,3.60
2023-04-12T01:52:59.349Z,3.00
2023-04-12T01:54:03.253Z,3.60
2023-04-12T01:54:39.065Z,5.00
2023-04-12T01:55:14.786Z,4.00
2023-04-12T01:55:49.739Z,3.70
2023-04-12T01:56:26.416Z,3.50
2023-04-12T01:57:03.209Z,3.80
2023-04-12T01:57:39.143Z,4.60
2023-04-12T01:58:13.539Z,4.00
2023-04-12T01:58:50.969Z,3.70
2023-04-12T01:59:28.665Z,5.80
2023-04-12T02:00:06.813Z,3.40
2023-04-12T02:00:47.759Z,3.40
2023-04-12T02:01:22.526Z,3.90
2023-04-12T02:01:56.566Z,5.90
2023-04-12T02:02:31.131Z,3.70
2023-04-12T02:03:07.063Z,5.50
2023-04-12T02:03:42.886Z,4.10
2023-04-12T02:04:18.548Z,6.70
2023-04-12T02:04:53.112Z,4.50
2023-04-12T02:05:27.715Z,5.50
2023-04-12T02:06:02.865Z,4.30
2023-04-12T02:06:37.984Z,4.50
2023-04-12T02:07:12.637Z,5.30
2023-04-12T02:07:46.457Z,5.50
2023-04-12T02:08:19.848Z,4.80
2023-04-12T02:09:02.365Z,4.00
2023-04-12T02:09:39.445Z,3.50
2023-04-12T02:10:15.820Z,3.50
2023-04-12T02:10:49.199Z,4.00
2023-04-12T02:11:22.962Z,4.40
2023-04-12T02:11:56.828Z,3.60
2023-04-12T02:12:30.259Z,4.60
2023-04-12T02:13:04.462Z,3.50
2023-04-12T02:13:38.065Z,3.90
2023-04-12T02:14:11.577Z,5.50
2023-04-12T02:14:45.062Z,4.60
2023-04-12T02:15:18.456Z,3.50
2023-04-12T02:15:55.029Z,3.80
2023-04-12T02:16:29.729Z,3.90
2023-04-12T02:17:04.739Z,3.40
2023-04-12T02:17:38.545Z,3.10
2023-04-12T02:18:14.059Z,4.10
2023-04-12T02:18:47.870Z,3.90
2023-04-12T02:19:21.352Z,3.50
2023-04-12T02:19:55.428Z,4.90
2023-04-12T02:20:29.187Z,3.30
2023-04-12T02:21:02.625Z,3.50
2023-04-12T02:21:43.055Z,5.20
2023-04-12T02:22:17.400Z,3.60
2023-04-12T02:22:52.158Z,4.20
2023-04-12T02:23:27.575Z,4.00
2023-04-12T02:24:00.894Z,3.80
2023-04-12T02:24:34.518Z,4.30
2023-04-12T02:25:08.191Z,4.40
2023-04-12T02:25:41.646Z,5.80
2023-04-12T02:26:15.235Z,4.10
2023-04-12T02:26:51.457Z,4.60
2023-04-12T02:27:25.552Z,4.50
2023-04-12T02:27:59.064Z,3.40
2023-04-12T02:28:34.125Z,4.00
2023-04-12T02:29:09.499Z,5.70
2023-04-12T02:29:42.856Z,3.90
2023-04-12T02:30:16.394Z,3.80
2023-04-12T02:30:54.116Z,3.70
2023-04-12T02:31:28.186Z,4.60
2023-04-12T02:32:03.002Z,4.20
2023-04-12T02:32:44.308Z,3.80
2023-04-12T02:33:21.930Z,3.10
2023-04-12T02:33:55.870Z,5.50
2023-04-12T02:34:36.881Z,4.40
2023-04-12T02:35:25.078Z,4.40
2023-04-12T02:36:05.777Z,5.10
2023-04-12T02:36:39.396Z,5.10
2023-04-12T02:37:14.943Z,3.90
2023-04-12T02:37:48.767Z,3.30
2023-04-12T02:38:22.049Z,4.00
2023-04-12T02:38:56.806Z,4.20
2023-04-12T02:39:32.416Z,3.30
2023-04-12T02:40:07.282Z,4.00
2023-04-12T02:40:41.156Z,4.50
2023-04-12T02:41:20.108Z,4.70
2023-04-12T02:41:53.807Z,4.70
2023-04-12T02:42:27.195Z,5.80
2023-04-12T02:43:00.701Z,4.50
2023-04-12T02:43:34.375Z,3.90
2023-04-12T02:44:10.698Z,4.30
2023-04-12T02:44:48.061Z,4.90
2023-04-12T02:45:21.821Z,7.30
2023-04-12T02:45:55.822Z,5.00
2023-04-12T02:46:29.523Z,6.10
2023-04-12T02:47:04.667Z,4.90
2023-04-12T02:47:38.722Z,5.50
2023-04-12T02:48:13.208Z,4.30
2023-04-12T02:48:46.903Z,3.10
2023-04-12T02:49:20.594Z,5.30
2023-04-12T02:49:54.974Z,4.00
2023-04-12T02:50:29.646Z,4.80
2023-04-12T02:51:13.383Z,4.10
2023-04-12T02:51:46.853Z,4.10
2023-04-12T02:52:21.221Z,4.20
2023-04-12T02:53:06.299Z,3.30
2023-04-12T02:53:39.839Z,6.10
2023-04-12T02:54:18.525Z,4.50
2023-04-12T02:55:00.370Z,3.70
2023-04-12T02:55:34.168Z,3.40
2023-04-12T02:56:09.713Z,4.30
2023-04-12T02:56:44.040Z,4.10
2023-04-12T02:57:33.260Z,5.10
2023-04-12T02:58:07.440Z,5.80
2023-04-12T02:58:44.827Z,3.60
2023-04-12T02:59:19.391Z,4.10
2023-04-12T03:00:14.091Z,5.00
2023-04-12T03:00:53.669Z,3.60
2023-04-12T03:01:32.289Z,3.80
2023-04-12T03:02:23.234Z,3.60
2023-04-12T03:03:00.365Z,3.20
2023-04-12T03:03:36.129Z,3.60
2023-04-12T03:04:19.558Z,3.50
2023-04-12T03:04:58.781Z,4.70
2023-04-12T03:05:40.294Z,4.60
2023-04-12T03:06:13.721Z,3.80
2023-04-12T03:06:54.010Z,4.60
2023-04-12T03:07:38.985Z,4.00
2023-04-12T03:08:14.448Z,4.30
2023-04-12T03:08:53.331Z,3.10
2023-04-12T03:09:27.269Z,3.70
2023-04-12T03:10:02.287Z,4.20
2023-04-12T03:10:36.219Z,3.40
2023-04-12T03:11:09.897Z,4.20
2023-04-12T03:11:43.317Z,4.80
2023-04-12T03:12:17.353Z,5.10
2023-04-12T03:12:59.047Z,3.80
2023-04-12T03:13:40.187Z,4.00
2023-04-12T03:14:13.591Z,3.80
2023-04-12T03:14:47.857Z,5.00
2023-04-12T03:15:23.798Z,4.10
2023-04-12T03:16:00.187Z,6.20
2023-04-12T03:16:40.991Z,4.10
2023-04-12T03:17:17.681Z,5.40
2023-04-12T03:17:51.675Z,4.10
2023-04-12T03:18:29.791Z,4.00
2023-04-12T03:19:03.630Z,3.10
2023-04-12T03:19:37.490Z,3.30
2023-04-12T03:20:11.149Z,5.60
2023-04-12T03:20:48.597Z,4.00
2023-04-12T03:21:23.706Z,4.40
2023-04-12T03:21:57.831Z,4.10
2023-04-12T03:22:31.433Z,3.90
2023-04-12T03:23:05.604Z,4.00
2023-04-12T03:23:40.585Z,4.40
2023-04-12T03:24:55.793Z,6.20
2023-04-12T03:25:29.298Z,4.50
2023-04-12T03:26:07.353Z,5.50
2023-04-12T03:26:42.424Z,3.60
2023-04-12T03:27:20.284Z,3.80
2023-04-12T03:27:54.354Z,5.20
2023-04-12T03:28:30.061Z,4.70
2023-04-12T03:29:10.066Z,4.60
2023-04-12T03:30:18.687Z,4.50
2023-04-12T03:30:52.321Z,5.40
2023-04-12T03:31:28.303Z,3.30
2023-04-12T03:32:02.461Z,3.00
2023-04-12T03:32:37.489Z,6.10
2023-04-12T03:33:11.546Z,4.00
2023-04-12T03:33:45.272Z,3.90
2023-04-12T03:34:39.084Z,3.90
2023-04-12T03:35:18.138Z,4.60
2023-04-12T03:35:51.743Z,3.60
2023-04-12T03:36:25.432Z,3.80
2023-04-12T03:37:02.728Z,3.90
2023-04-12T03:37:44.782Z,4.00
2023-04-12T03:38:18.532Z,4.60
2023-04-12T03:38:52.162Z,4.30
2023-04-12T03:39:26.016Z,3.90
2023-04-12T03:40:00.348Z,4.10
2023-04-12T03:40:34.390Z,4.70
2023-04-12T03:41:08.091Z,5.30
2023-04-12T03:41:43.586Z,4.10
2023-04-12T03:42:29.957Z,4.20
2023-04-12T03:43:07.066Z,4.60
2023-04-12T03:43:42.673Z,4.80
2023-04-12T03:44:26.347Z,3.40
2023-04-12T03:45:01.592Z,5.20
2023-04-12T03:45:35.253Z,4.90
2023-04-12T03:46:09.125Z,7.00
2023-04-12T03:46:42.897Z,5.40
2023-04-12T03:47:17.277Z,4.50
2023-04-12T03:47:51.003Z,3.70
2023-04-12T03:48:25.555Z,3.90
2023-04-12T03:48:59.147Z,3.90
2023-04-12T03:49:32.974Z,5.40
2023-04-12T03:50:11.937Z,4.80
2023-04-12T03:50:48.699Z,4.00
2023-04-12T03:51:27.191Z,4.50
2023-04-12T03:52:07.479Z,3.80
2023-04-12T03:52:40.997Z,5.00
2023-04-12T03:53:14.626Z,4.50
2023-04-12T03:53:49.947Z,3.80
2023-04-12T03:54:24.543Z,4.50
2023-04-12T03:55:07.889Z,4.20
2023-04-12T03:55:42.580Z,4.30
2023-04-12T03:56:16.168Z,6.90
2023-04-12T03:56:51.945Z,3.90
2023-04-12T03:57:30.501Z,3.60
2023-04-12T03:58:04.842Z,3.90
2023-04-12T03:58:41.307Z,5.10
2023-04-12T03:59:16.050Z,4.70
2023-04-12T03:59:50.488Z,6.80
2023-04-12T04:00:26.152Z,3.70
2023-04-12T04:01:14.180Z,4.00
2023-04-12T04:01:49.135Z,4.00
2023-04-12T04:02:23.196Z,3.90
2023-04-12T04:03:03.728Z,5.10
2023-04-12T04:03:41.489Z,3.90
2023-04-12T04:04:24.925Z,4.80
2023-04-12T04:05:02.664Z,4.40
2023-04-12T04:05:36.487Z,5.30
2023-04-12T04:06:11.000Z,4.30
2023-04-12T04:06:45.094Z,7.30
2023-04-12T04:07:18.623Z,4.60
2023-04-12T04:07:52.864Z,3.60
2023-04-12T04:08:26.376Z,4.20
2023-04-12T04:09:00.353Z,4.20
2023-04-12T04:09:34.622Z,5.00
2023-04-12T04:10:08.310Z,5.20
2023-04-12T04:10:43.094Z,3.40
2023-04-12T04:11:17.089Z,4.50
2023-04-12T04:11:53.357Z,4.00
2023-04-12T04:12:28.251Z,6.00
2023-04-12T04:13:01.958Z,5.50
2023-04-12T04:13:38.334Z,4.70
2023-04-12T04:14:13.697Z,5.60
2023-04-12T04:14:47.239Z,7.60
2023-04-12T04:15:28.636Z,3.70
2023-04-12T04:16:06.974Z,5.10
2023-04-12T04:16:40.525Z,5.80
2023-04-12T04:17:14.428Z,5.80
2023-04-12T04:17:49.514Z,5.00
2023-04-12T04:18:24.717Z,4.70
2023-04-12T04:18:58.233Z,4.30
2023-04-12T04:19:32.223Z,3.70
2023-04-12T04:20:08.410Z,6.10
2023-04-12T04:20:42.885Z,4.40
2023-04-12T04:21:16.664Z,4.70
2023-04-12T04:21:50.321Z,7.00
2023-04-12T04:22:24.513Z,4.20
2023-04-12T04:22:58.666Z,3.40
2023-04-12T04:23:39.847Z,7.20
2023-04-12T04:24:14.542Z,5.30
2023-04-12T04:24:51.968Z,5.50
2023-04-12T04:25:30.286Z,4.80
2023-04-12T04:26:10.810Z,6.60
2023-04-12T04:26:50.577Z,7.60
2023-04-12T04:27:34.596Z,3.90
2023-04-12T04:28:09.977Z,5.20
2023-04-12T04:28:47.970Z,6.30
2023-04-12T04:29:25.863Z,3.80
2023-04-12T04:29:59.740Z,4.80
2023-04-12T04:30:39.181Z,5.00
2023-04-12T04:31:17.854Z,9.10
2023-04-12T04:31:54.640Z,4.00
2023-04-12T04:32:29.376Z,4.70
2023-04-12T04:33:03.638Z,4.20
2023-04-12T04:33:37.967Z,6.40
2023-04-12T04:34:12.826Z,6.30
2023-04-12T04:34:49.672Z,4.80
2023-04-12T04:35:24.530Z,3.80
2023-04-12T04:36:09.525Z,7.90
2023-04-12T04:36:47.032Z,5.70
2023-04-12T04:37:28.384Z,5.00
2023-04-12T04:38:01.853Z,5.70
2023-04-12T04:38:36.252Z,4.60
2023-04-12T04:39:14.557Z,5.00
2023-04-12T04:39:49.492Z,3.90
2023-04-12T04:40:24.970Z,4.00
2023-04-12T04:41:02.613Z,4.20
2023-04-12T04:41:47.012Z,4.00
2023-04-12T04:42:30.011Z,4.30
2023-04-12T04:43:08.372Z,7.00
2023-04-12T04:43:43.156Z,6.20
2023-04-12T04:44:16.603Z,4.70
2023-04-12T04:45:03.928Z,5.00
2023-04-12T04:45:43.155Z,4.90
2023-04-12T04:46:17.480Z,5.00
2023-04-12T04:46:51.970Z,4.00
2023-04-12T04:47:25.387Z,5.00
2023-04-12T04:47:59.090Z,4.80
2023-04-12T04:48:32.474Z,6.60
2023-04-12T04:49:07.050Z,4.20
2023-04-12T04:49:41.546Z,5.10
2023-04-12T04:50:28.813Z,4.70
2023-04-12T04:51:02.993Z,5.20
2023-04-12T04:51:36.915Z,5.40
2023-04-12T04:52:10.630Z,5.00
2023-04-12T04:52:44.846Z,3.70
2023-04-12T04:53:22.075Z,4.00
2023-04-12T04:53:55.809Z,4.50
2023-04-12T04:54:29.408Z,4.40
2023-04-12T04:55:05.503Z,5.30
2023-04-12T04:55:42.690Z,4.50
2023-04-12T04:56:16.737Z,3.70
2023-04-12T04:56:50.262Z,5.00
2023-04-12T04:57:24.915Z,5.00
2023-04-12T04:57:58.378Z,4.10
2023-04-12T04:58:33.304Z,4.50
2023-04-12T04:59:07.756Z,4.80
2023-04-12T04:59:41.555Z,5.10
2023-04-12T05:00:25.868Z,4.00
2023-04-12T05:01:02.628Z,6.10
2023-04-12T05:01:42.330Z,3.70
2023-04-12T05:02:22.228Z,8.60
2023-04-12T05:02:57.585Z,4.50
2023-04-12T05:03:35.107Z,6.60
2023-04-12T05:04:09.602Z,6.60
2023-04-12T05:04:44.332Z,7.40
2023-04-12T05:05:23.635Z,8.60
2023-04-12T05:06:02.214Z,8.10
2023-04-12T05:06:36.255Z,4.60
2023-04-12T05:07:09.685Z,4.70
2023-04-12T05:07:44.213Z,4.70
2023-04-12T05:08:17.677Z,5.90
2023-04-12T05:08:52.727Z,4.50
2023-04-12T05:09:26.296Z,6.10
2023-04-12T05:10:03.960Z,7.70
2023-04-12T05:10:37.872Z,4.80
2023-04-12T05:11:11.462Z,4.60
2023-04-12T05:11:44.874Z,5.30
2023-04-12T05:12:18.356Z,4.80
2023-04-12T05:12:54.579Z,4.80
2023-04-12T05:13:30.058Z,7.90
2023-04-12T05:14:03.706Z,5.60
2023-04-12T05:14:47.403Z,6.80
2023-04-12T05:15:24.909Z,5.30
2023-04-12T05:15:58.283Z,3.80
2023-04-12T05:16:32.198Z,5.20
2023-04-12T05:17:05.776Z,6.50
2023-04-12T05:17:39.490Z,4.20
2023-04-12T05:18:14.648Z,6.40
2023-04-12T05:18:48.137Z,4.40
2023-04-12T05:19:22.154Z,5.70
2023-04-12T05:19:56.311Z,4.20
2023-04-12T05:20:29.882Z,3.90
2023-04-12T05:21:06.729Z,4.70
2023-04-12T05:21:40.203Z,4.60
2023-04-12T05:22:14.944Z,5.60
2023-04-12T05:22:51.547Z,7.00
2023-04-12T05:24:05.545Z,5.70
2023-04-12T05:24:44.123Z,4.70
2023-04-12T05:25:17.548Z,7.90
2023-04-12T05:25:58.047Z,3.60
2023-04-12T05:26:31.622Z,4.90
2023-04-12T05:27:06.033Z,5.50
2023-04-12T05:27:39.576Z,7.30
2023-04-12T05:28:15.163Z,7.30
2023-04-12T05:28:48.631Z,5.20
2023-04-12T05:29:22.568Z,5.70
2023-04-12T05:29:57.776Z,5.90
2023-04-12T05:30:31.752Z,6.00
2023-04-12T05:31:06.412Z,5.50
2023-04-12T05:31:42.433Z,4.60
2023-04-12T05:32:21.606Z,5.00
2023-04-12T05:32:55.219Z,6.00
2023-04-12T05:33:28.652Z,6.10
2023-04-12T05:34:02.222Z,5.00
2023-04-12T05:34:40.711Z,5.20
2023-04-12T05:35:14.974Z,5.40
2023-04-12T05:35:49.053Z,5.00
2023-04-12T05:36:22.499Z,12.20
2023-04-12T05:36:59.844Z,11.20
2023-04-12T05:37:35.348Z,12.80
2023-04-12T05:38:08.948Z,13.80
2023-04-12T05:38:43.530Z,14.90
2023-04-12T05:39:20.610Z,14.20
2023-04-12T05:39:54.598Z,16.10
2023-04-12T05:40:28.089Z,15.00
2023-04-12T05:41:04.942Z,13.00
2023-04-12T05:41:39.339Z,10.60
2023-04-12T05:42:12.905Z,11.30
2023-04-12T05:42:46.563Z,9.90
2023-04-12T05:43:20.531Z,10.10
2023-04-12T05:43:54.076Z,9.30
2023-04-12T05:44:27.825Z,7.80
2023-04-12T05:45:01.708Z,7.00
2023-04-12T05:45:35.767Z,4.40
2023-04-12T05:46:09.237Z,5.00
2023-04-12T05:46:43.027Z,5.80
2023-04-12T05:47:16.847Z,7.10
2023-04-12T05:47:50.611Z,7.50
2023-04-12T05:48:24.220Z,5.90
2023-04-12T05:48:58.388Z,5.40
2023-04-12T05:49:32.434Z,5.30
2023-04-12T05:50:07.767Z,7.90
2023-04-12T05:50:41.321Z,6.60
2023-04-12T05:51:14.811Z,7.80
2023-04-12T05:51:48.372Z,5.20
2023-04-12T05:52:27.093Z,4.10
2023-04-12T05:53:02.059Z,4.60
2023-04-12T05:53:40.241Z,7.70
2023-04-12T05:54:13.961Z,6.00
2023-04-12T05:54:47.439Z,4.40
2023-04-12T05:55:22.714Z,5.70
2023-04-12T05:55:56.217Z,5.70
2023-04-12T05:56:29.935Z,5.60
2023-04-12T05:57:03.697Z,9.00
2023-04-12T05:57:37.733Z,4.70
2023-04-12T05:58:11.927Z,5.10
2023-04-12T05:58:45.447Z,5.90
2023-04-12T05:59:22.545Z,5.30
2023-04-12T05:59:55.996Z,4.90
2023-04-12T06:00:29.538Z,4.60
2023-04-12T06:01:03.185Z,5.30
2023-04-12T06:01:36.952Z,4.50
2023-04-12T06:02:11.431Z,9.10
2023-04-12T06:02:46.530Z,5.20
2023-04-12T06:03:24.186Z,4.90
2023-04-12T06:03:59.811Z,5.20
2023-04-12T06:04:46.845Z,5.60
2023-04-12T06:05:24.071Z,6.00
2023-04-12T06:05:57.858Z,5.90
2023-04-12T06:06:31.703Z,5.50
2023-04-12T06:07:05.994Z,4.80
2023-04-12T06:07:40.255Z,6.10
2023-04-12T06:08:15.053Z,7.50
2023-04-12T06:08:48.576Z,5.10
2023-04-12T06:09:22.537Z,4.40
2023-04-12T06:09:56.665Z,4.60
2023-04-12T06:10:30.189Z,5.90
2023-04-12T06:11:08.318Z,4.30
2023-04-12T06:11:42.237Z,5.30
2023-04-12T06:12:15.798Z,5.30
2023-04-12T06:12:49.073Z,4.00
2023-04-12T06:13:22.623Z,4.80
2023-04-12T06:13:57.311Z,4.20
2023-04-12T06:14:31.078Z,6.00
2023-04-12T06:15:05.239Z,5.40
2023-04-12T06:15:39.249Z,6.10
2023-04-12T06:16:13.820Z,6.70
2023-04-12T06:16:47.232Z,5.00
2023-04-12T06:17:20.595Z,5.90
2023-04-12T06:17:54.054Z,4.10
2023-04-12T06:18:27.617Z,4.60
2023-04-12T06:19:01.154Z,5.30
2023-04-12T06:19:34.655Z,5.00
2023-04-12T06:20:09.918Z,5.70
2023-04-12T06:20:44.691Z,4.80
2023-04-12T06:21:19.380Z,4.60
2023-04-12T06:21:53.211Z,6.40
2023-04-12T06:22:26.852Z,6.20
2023-04-12T06:23:00.584Z,4.70
2023-04-12T06:23:34.005Z,4.70
2023-04-12T06:24:10.095Z,3.90
2023-04-12T06:24:43.576Z,5.30
2023-04-12T06:25:18.028Z,4.50
2023-04-12T06:25:53.671Z,3.90
2023-04-12T06:26:32.173Z,4.90
2023-04-12T06:27:12.929Z,5.30
2023-04-12T06:27:46.322Z,4.40
2023-04-12T06:28:21.445Z,5.40
2023-04-12T06:28:57.094Z,3.90
2023-04-12T06:29:30.909Z,4.70
2023-04-12T06:30:04.558Z,4.20
2023-04-12T06:30:41.128Z,4.40
2023-04-12T06:31:16.881Z,5.90
2023-04-12T06:31:50.638Z,3.70
2023-04-12T06:32:24.205Z,3.90
2023-04-12T06:32:58.184Z,5.20
2023-04-12T06:33:31.583Z,5.10
2023-04-12T06:34:05.900Z,5.50
2023-04-12T06:34:39.479Z,4.60
2023-04-12T06:35:18.586Z,4.60
2023-04-12T06:35:52.089Z,4.80
2023-04-12T06:36:25.691Z,3.70
2023-04-12T06:37:00.167Z,3.70
2023-04-12T06:37:33.723Z,4.80
2023-04-12T06:38:07.165Z,4.60
2023-04-12T06:38:40.525Z,4.80
2023-04-12T06:39:16.454Z,4.50
2023-04-12T06:39:49.855Z,4.80
2023-04-12T06:40:23.504Z,5.20
2023-04-12T06:40:57.038Z,5.70
2023-04-12T06:41:31.102Z,5.20
2023-04-12T06:42:07.754Z,4.10
2023-04-12T06:42:44.962Z,4.60
2023-04-12T06:43:22.952Z,4.80
2023-04-12T06:43:56.567Z,5.90
2023-04-12T06:44:30.014Z,4.80
2023-04-12T06:45:03.658Z,6.20
2023-04-12T06:45:37.228Z,4.80
2023-04-12T06:46:10.991Z,5.50
2023-04-12T06:46:44.410Z,5.90
2023-04-12T06:47:17.824Z,4.60
2023-04-12T06:47:51.582Z,3.70
2023-04-12T06:48:25.346Z,4.20
2023-04-12T06:48:59.143Z,5.20
2023-04-12T06:49:32.752Z,4.30
2023-04-12T06:50:09.448Z,3.90
2023-04-12T06:50:42.991Z,4.90
2023-04-12T06:51:18.917Z,4.80
2023-04-12T06:51:52.806Z,5.10
2023-04-12T06:52:27.572Z,4.50
2023-04-12T06:53:00.958Z,5.50
2023-04-12T06:53:35.346Z,5.00
2023-04-12T06:54:08.691Z,4.20
2023-04-12T06:54:42.612Z,5.30
2023-04-12T06:55:16.458Z,4.70
2023-04-12T06:55:49.884Z,4.70
2023-04-12T06:56:23.662Z,5.60
2023-04-12T06:56:57.784Z,4.30
2023-04-12T06:57:31.194Z,4.50
2023-04-12T06:58:04.756Z,4.50
2023-04-12T06:58:38.384Z,5.30
2023-04-12T06:59:12.096Z,5.70
2023-04-12T06:59:45.714Z,5.70
2023-04-12T07:00:19.275Z,6.00
2023-04-12T07:00:52.861Z,6.80
2023-04-12T07:01:26.599Z,4.20
2023-04-12T07:02:00.732Z,5.00
2023-04-12T07:02:34.303Z,4.80
2023-04-12T07:03:09.641Z,3.90
2023-04-12T07:03:43.180Z,5.40
2023-04-12T07:04:17.235Z,5.80
2023-04-12T07:04:54.710Z,5.90
2023-04-12T07:05:28.197Z,5.50
2023-04-12T07:06:17.278Z,5.30
2023-04-12T07:06:55.383Z,6.00
2023-04-12T07:07:28.867Z,4.50
2023-04-12T07:08:02.223Z,5.30
2023-04-12T07:08:37.227Z,3.30
2023-04-12T07:09:10.810Z,3.90
2023-04-12T07:09:44.030Z,5.70
2023-04-12T07:10:17.573Z,5.20
2023-04-12T07:10:54.600Z,7.60
2023-04-12T07:11:28.862Z,4.90
2023-04-12T07:12:03.204Z,5.30
2023-04-12T07:12:36.812Z,7.80
2023-04-12T07:13:10.112Z,6.70
2023-04-12T07:13:43.533Z,5.00
2023-04-12T07:14:17.079Z,6.10
2023-04-12T07:14:50.927Z,4.10
2023-04-12T07:15:24.579Z,4.40
2023-04-12T07:15:58.679Z,3.90
2023-04-12T07:16:32.952Z,5.00
2023-04-12T07:17:07.091Z,5.50
2023-04-12T07:17:40.714Z,4.10
2023-04-12T07:18:14.165Z,5.60
2023-04-12T07:18:47.865Z,4.50
2023-04-12T07:19:24.033Z,4.40
2023-04-12T07:19:57.785Z,4.50
2023-04-12T07:20:31.263Z,3.80
2023-04-12T07:21:05.012Z,5.10
2023-04-12T07:21:38.571Z,4.40
2023-04-12T07:22:13.677Z,3.70
2023-04-12T07:22:47.569Z,4.50
2023-04-12T07:23:21.036Z,3.90
2023-04-12T07:23:56.034Z,3.90
2023-04-12T07:24:29.618Z,5.00
2023-04-12T07:25:03.109Z,5.60
2023-04-12T07:25:39.290Z,5.10
2023-04-12T07:26:12.834Z,5.40
2023-04-12T07:26:46.555Z,4.00
2023-04-12T07:27:20.171Z,3.00
2023-04-12T07:27:54.140Z,3.60
2023-04-12T07:28:28.366Z,5.50
2023-04-12T07:29:01.786Z,5.50
2023-04-12T07:29:35.299Z,3.50
2023-04-12T07:30:09.324Z,3.30
2023-04-12T07:30:42.880Z,4.20
2023-04-12T07:31:18.313Z,3.90
2023-04-12T07:31:51.842Z,4.60
2023-04-12T07:32:25.722Z,3.90
2023-04-12T07:33:12.280Z,5.10
2023-04-12T07:33:52.552Z,5.60
2023-04-12T07:34:26.899Z,3.00
2023-04-12T07:35:00.717Z,4.30
2023-04-12T07:35:34.701Z,5.20
2023-04-12T07:36:08.475Z,4.10
2023-04-12T07:36:44.126Z,4.60
2023-04-12T07:37:18.176Z,3.70
2023-04-12T07:37:51.477Z,3.70
2023-04-12T07:38:24.818Z,4.30
2023-04-12T07:38:58.378Z,3.60
2023-04-12T07:39:32.245Z,4.80
2023-04-12T07:40:06.956Z,3.60
2023-04-12T07:40:40.356Z,6.00
2023-04-12T07:41:13.830Z,6.40
2023-04-12T07:41:48.544Z,4.30
2023-04-12T07:42:21.939Z,4.10
2023-04-12T07:42:55.604Z,4.80
2023-04-12T07:43:28.993Z,3.80
2023-04-12T07:44:02.388Z,6.20
2023-04-12T07:44:38.627Z,3.90
2023-04-12T07:45:12.512Z,4.00
2023-04-12T07:45:46.240Z,4.30
2023-04-12T07:46:19.682Z,3.30
2023-04-12T07:46:53.087Z,4.40
2023-04-12T07:47:26.446Z,4.60
2023-04-12T07:47:59.855Z,3.40
2023-04-12T07:48:33.318Z,3.50
2023-04-12T07:49:07.750Z,4.70
2023-04-12T07:49:41.202Z,6.10
2023-04-12T07:50:14.784Z,6.20
2023-04-12T07:50:48.322Z,6.60
2023-04-12T07:51:21.991Z,3.90
2023-04-12T07:51:55.370Z,4.30
2023-04-12T07:52:28.685Z,5.90
2023-04-12T07:53:22.477Z,4.60
2023-04-12T07:53:56.552Z,3.70
2023-04-12T07:54:30.141Z,4.10
2023-04-12T07:55:05.160Z,4.20
2023-04-12T07:55:38.796Z,4.40
2023-04-12T07:56:12.264Z,4.60
2023-04-12T07:57:02.738Z,3.40
2023-04-12T07:57:36.653Z,4.40
2023-04-12T07:58:10.231Z,5.20
2023-04-12T07:58:43.791Z,4.40
2023-04-12T07:59:17.193Z,7.20
2023-04-12T07:59:51.007Z,4.20
2023-04-12T08:00:24.511Z,4.30
2023-04-12T08:00:59.878Z,5.00
2023-04-12T08:01:34.684Z,4.00
2023-04-12T08:02:08.506Z,4.80
2023-04-12T08:02:42.282Z,3.70